createdAt,value
2023-05-13T00:01:46.276Z,17.95
2023-05-13T00:04:12.998Z,18.77
2023-05-13T00:06:39.696Z,20.15
2023-05-13T00:09:06.420Z,15.85
2023-05-13T00:11:33.025Z,21.45
2023-05-13T00:13:59.641Z,21.27
2023-05-13T00:16:27.945Z,17.50
2023-05-13T00:18:55.381Z,16.65
2023-05-13T00:21:22.507Z,18.38
2023-05-13T00:23:49.501Z,16.00
2023-05-13T00:26:16.134Z,17.40
2023-05-13T00:28:44.783Z,17.00
2023-05-13T00:31:11.490Z,25.00
2023-05-13T00:33:38.192Z,19.85
2023-05-13T00:36:05.093Z,19.73
2023-05-13T00:38:32.702Z,21.33
2023-05-13T00:40:59.325Z,21.30
2023-05-13T00:43:26.202Z,20.50
2023-05-13T00:45:52.846Z,26.98
2023-05-13T00:48:19.508Z,22.25
2023-05-13T00:50:46.160Z,21.77
2023-05-13T00:53:12.987Z,22.05
2023-05-13T00:55:44.235Z,23.70
2023-05-13T00:58:11.493Z,18.30
2023-05-13T01:00:46.987Z,20.08
2023-05-13T01:03:20.827Z,20.50
2023-05-13T01:06:04.987Z,22.02
2023-05-13T01:08:51.765Z,23.25
2023-05-13T01:11:22.306Z,24.80
2023-05-13T01:13:50.656Z,26.17
2023-05-13T01:16:30.362Z,21.80
2023-05-13T01:18:59.332Z,23.27
2023-05-13T01:21:27.101Z,21.80
2023-05-13T01:23:54.349Z,25.77
2023-05-13T01:26:22.381Z,20.50
2023-05-13T01:28:50.263Z,22.70
2023-05-13T01:31:17.709Z,22.80
2023-05-13T01:33:44.583Z,22.92
2023-05-13T01:36:12.617Z,24.52
2023-05-13T01:38:41.161Z,26.17
2023-05-13T01:41:08.712Z,28.10
2023-05-13T01:43:36.135Z,25.27
2023-05-13T01:46:03.807Z,21.90
2023-05-13T01:48:32.814Z,23.40
2023-05-13T01:50:59.565Z,23.48
2023-05-13T01:53:26.835Z,30.52
2023-05-13T01:55:53.473Z,25.30
2023-05-13T01:58:21.147Z,25.45
2023-05-13T02:00:47.858Z,23.38
2023-05-13T02:03:14.995Z,22.13
2023-05-13T02:05:42.067Z,19.88
2023-05-13T02:08:09.024Z,20.38
2023-05-13T02:10:37.938Z,24.95
2023-05-13T02:13:04.528Z,23.02
2023-05-13T02:15:31.500Z,21.25
2023-05-13T02:17:58.734Z,26.63
2023-05-13T02:20:26.371Z,25.60
2023-05-13T02:22:53.002Z,24.35
2023-05-13T02:25:19.708Z,25.45
2023-05-13T02:27:46.287Z,22.35
2023-05-13T02:30:13.018Z,21.38
2023-05-13T02:32:42.738Z,25.58
2023-05-13T02:35:10.734Z,22.20
2023-05-13T02:37:37.424Z,25.33
2023-05-13T02:40:04.900Z,23.60
2023-05-13T02:42:31.547Z,25.27
2023-05-13T02:44:58.498Z,25.35
2023-05-13T02:47:26.701Z,24.77
2023-05-13T02:49:56.048Z,20.70
2023-05-13T02:52:22.985Z,26.88
2023-05-13T02:54:49.725Z,27.63
2023-05-13T02:57:16.384Z,27.52
2023-05-13T02:59:44.022Z,22.55
2023-05-13T03:02:10.959Z,24.27
2023-05-13T03:04:37.598Z,21.27
2023-05-13T03:07:04.342Z,24.80
2023-05-13T03:09:31.593Z,24.33
2023-05-13T03:11:58.516Z,22.70
2023-05-13T03:14:25.131Z,29.95
2023-05-13T03:16:51.796Z,21.35
2023-05-13T03:19:18.513Z,27.23
2023-05-13T03:21:45.763Z,25.67
2023-05-13T03:24:15.199Z,19.73
2023-05-13T03:26:41.906Z,25.85
2023-05-13T03:29:08.772Z,27.60
2023-05-13T03:31:36.845Z,24.65
2023-05-13T03:34:05.006Z,26.10
2023-05-13T03:36:32.817Z,23.95
2023-05-13T03:39:00.266Z,26.63
2023-05-13T03:41:28.136Z,27.08
2023-05-13T03:43:57.219Z,25.58
2023-05-13T03:46:23.945Z,24.08
2023-05-13T03:48:50.734Z,20.73
2023-05-13T03:51:17.708Z,23.33
2023-05-13T03:53:45.099Z,20.85
2023-05-13T03:56:11.845Z,28.05
2023-05-13T03:58:39.611Z,27.38
2023-05-13T04:01:07.654Z,24.15
2023-05-13T04:03:34.812Z,20.55
2023-05-13T04:06:01.482Z,19.60
2023-05-13T04:08:28.101Z,25.17
2023-05-13T04:10:56.617Z,28.60
2023-05-13T04:13:25.852Z,23.65
2023-05-13T04:15:54.353Z,26.40
2023-05-13T04:18:21.551Z,27.42
2023-05-13T04:20:48.168Z,24.42
2023-05-13T04:23:14.837Z,22.05
2023-05-13T04:25:42.278Z,22.20
2023-05-13T04:28:09.012Z,27.05
2023-05-13T04:30:40.324Z,20.98
2023-05-13T04:33:07.460Z,27.23
2023-05-13T04:35:35.153Z,24.50
2023-05-13T04:38:03.995Z,25.13
2023-05-13T04:40:30.772Z,29.40
2023-05-13T04:43:02.125Z,26.33
2023-05-13T04:45:33.256Z,25.08
2023-05-13T04:48:01.029Z,22.67
2023-05-13T04:50:27.724Z,24.88
2023-05-13T04:52:56.371Z,27.77
2023-05-13T04:55:23.492Z,24.88
2023-05-13T04:57:50.692Z,24.20
2023-05-13T05:00:18.100Z,24.38
2023-05-13T05:02:46.970Z,24.80
2023-05-13T05:05:14.645Z,23.05
2023-05-13T05:07:42.260Z,26.13
2023-05-13T05:10:09.459Z,26.95
2023-05-13T05:12:40.550Z,26.58
2023-05-13T05:15:15.353Z,25.55
2023-05-13T05:17:44.054Z,27.52
2023-05-13T05:20:12.067Z,29.55
2023-05-13T05:22:38.966Z,24.35
2023-05-13T05:25:05.710Z,25.45
2023-05-13T05:27:32.391Z,24.20
2023-05-13T05:29:58.984Z,30.45
2023-05-13T05:32:25.761Z,24.80
2023-05-13T05:34:52.664Z,23.17
2023-05-13T05:37:19.654Z,26.85
2023-05-13T05:39:46.269Z,29.60
2023-05-13T05:42:12.928Z,25.67
2023-05-13T05:44:39.570Z,25.30
2023-05-13T05:47:06.146Z,25.40
2023-05-13T05:49:32.808Z,23.30
2023-05-13T05:51:59.512Z,27.80
2023-05-13T05:54:28.252Z,23.27
2023-05-13T05:56:54.920Z,21.52
2023-05-13T05:59:21.517Z,20.52
2023-05-13T06:01:48.734Z,21.77
2023-05-13T06:04:15.389Z,22.63
2023-05-13T06:06:42.199Z,18.77
2023-05-13T06:09:08.797Z,17.77
2023-05-13T06:11:35.716Z,18.50
2023-05-13T06:14:03.308Z,20.95
2023-05-13T06:16:30.235Z,20.02
2023-05-13T06:18:57.082Z,14.35
2023-05-13T06:21:25.105Z,25.50
2023-05-13T06:23:51.741Z,16.63
2023-05-13T06:26:20.795Z,15.77
2023-05-13T06:28:47.434Z,14.82
2023-05-13T06:31:14.939Z,14.65
2023-05-13T06:33:43.678Z,15.52
2023-05-13T06:36:10.376Z,13.77
2023-05-13T06:38:37.066Z,14.05
2023-05-13T06:41:03.744Z,15.88
2023-05-13T06:43:33.745Z,16.60
2023-05-13T06:46:11.105Z,18.00
2023-05-13T06:48:37.866Z,18.30
2023-05-13T06:51:05.190Z,16.30
2023-05-13T06:53:31.908Z,15.38
2023-05-13T06:55:58.499Z,17.52
2023-05-13T06:58:25.172Z,13.57
2023-05-13T07:00:51.946Z,13.82
2023-05-13T07:03:18.683Z,14.85
2023-05-13T07:05:45.439Z,16.85
2023-05-13T07:08:17.736Z,12.63
2023-05-13T07:10:44.956Z,19.13
2023-05-13T07:13:11.622Z,15.50
2023-05-13T07:15:38.412Z,15.90
2023-05-13T07:18:05.041Z,11.30
2023-05-13T07:20:31.721Z,13.82
2023-05-13T07:22:58.587Z,16.30
2023-05-13T07:25:25.193Z,11.20
2023-05-13T07:27:51.800Z,17.08
2023-05-13T07:30:18.401Z,9.88
2023-05-13T07:32:45.080Z,11.30
2023-05-13T07:35:11.992Z,9.95
2023-05-13T07:37:38.733Z,9.70
2023-05-13T07:40:06.463Z,11.23
2023-05-13T07:42:33.465Z,9.32
2023-05-13T07:45:00.228Z,15.18
2023-05-13T07:47:28.977Z,11.07
2023-05-13T07:49:55.776Z,12.05
2023-05-13T07:52:22.391Z,10.15
2023-05-13T07:54:49.275Z,9.85
2023-05-13T07:57:15.983Z,10.82
2023-05-13T07:59:44.640Z,10.13
2023-05-13T08:02:11.968Z,8.90
2023-05-13T08:04:38.908Z,9.18
2023-05-13T08:07:06.083Z,11.55
2023-05-13T08:09:32.705Z,11.77
2023-05-13T08:11:59.285Z,11.48
2023-05-13T08:14:26.036Z,12.90
2023-05-13T08:16:52.832Z,8.80
2023-05-13T08:19:19.766Z,10.18
2023-05-13T08:21:47.816Z,10.05
2023-05-13T08:24:14.489Z,18.83
2023-05-13T08:26:41.084Z,8.65
2023-05-13T08:29:08.627Z,10.88
2023-05-13T08:31:37.251Z,13.30
2023-05-13T08:34:03.819Z,13.90
2023-05-13T08:36:30.970Z,11.70
2023-05-13T08:38:57.625Z,10.73
2023-05-13T08:41:24.325Z,12.13
2023-05-13T08:43:52.226Z,9.52
2023-05-13T08:46:19.651Z,10.43
2023-05-13T08:48:47.210Z,11.25
2023-05-13T08:51:13.972Z,10.75
2023-05-13T08:53:41.107Z,10.57
2023-05-13T08:56:10.863Z,9.70
2023-05-13T08:58:37.590Z,11.02
2023-05-13T09:01:05.682Z,8.40
2023-05-13T09:03:32.847Z,9.00
2023-05-13T09:06:03.180Z,9.57
2023-05-13T09:08:30.228Z,8.02
2023-05-13T09:10:57.112Z,16.65
2023-05-13T09:13:23.813Z,8.35
2023-05-13T09:15:51.141Z,15.43
2023-05-13T09:18:19.446Z,9.25
2023-05-13T09:20:46.406Z,9.68
2023-05-13T09:23:13.447Z,11.75
2023-05-13T09:25:40.271Z,9.82
2023-05-13T09:28:08.190Z,8.70
2023-05-13T09:30:36.943Z,8.07
2023-05-13T09:33:17.033Z,13.88
2023-05-13T09:35:45.069Z,10.18
2023-05-13T09:38:25.037Z,9.27
2023-05-13T09:40:57.142Z,7.85
2023-05-13T09:43:27.279Z,15.43
2023-05-13T09:46:01.229Z,8.65
2023-05-13T09:48:29.516Z,7.20
2023-05-13T09:50:58.088Z,11.10
2023-05-13T09:53:25.918Z,16.05
2023-05-13T09:55:54.002Z,9.45
2023-05-13T09:58:22.733Z,12.50
2023-05-13T10:00:49.610Z,8.45
2023-05-13T10:03:16.867Z,7.68
2023-05-13T10:05:43.849Z,10.45
2023-05-13T10:08:12.384Z,5.95
2023-05-13T10:10:39.973Z,9.40
2023-05-13T10:13:09.215Z,7.10
2023-05-13T10:15:36.177Z,8.38
2023-05-13T10:18:05.234Z,10.68
2023-05-13T10:20:33.683Z,9.50
2023-05-13T10:23:02.386Z,7.32
2023-05-13T10:25:31.555Z,6.63
2023-05-13T10:27:58.340Z,7.15
2023-05-13T10:30:26.535Z,11.18
2023-05-13T10:32:54.560Z,12.18
2023-05-13T10:35:22.292Z,9.00
2023-05-13T10:37:56.922Z,11.00
2023-05-13T10:40:41.996Z,6.18
2023-05-13T10:43:17.480Z,9.82
2023-05-13T10:45:48.046Z,8.30
2023-05-13T10:48:16.254Z,15.95
2023-05-13T10:50:57.515Z,10.95
2023-05-13T10:53:26.151Z,8.32
2023-05-13T10:55:56.591Z,9.32
2023-05-13T10:58:30.643Z,7.32
2023-05-13T11:01:36.279Z,10.15
2023-05-13T11:04:05.025Z,6.35
2023-05-13T11:06:39.530Z,6.35
2023-05-13T11:09:08.088Z,9.18
2023-05-13T11:11:35.839Z,8.32
2023-05-13T11:14:03.610Z,6.35
2023-05-13T11:16:30.264Z,7.10
2023-05-13T11:18:56.987Z,5.10
2023-05-13T11:21:35.246Z,12.20
2023-05-13T11:24:04.120Z,6.47
2023-05-13T11:27:16.334Z,4.95
2023-05-13T11:29:50.723Z,6.30
2023-05-13T11:32:51.567Z,7.80
2023-05-13T11:35:29.616Z,6.00
2023-05-13T11:37:59.157Z,5.20
2023-05-13T11:40:39.280Z,6.90
2023-05-13T11:43:06.014Z,7.60
2023-05-13T11:45:33.397Z,5.20
2023-05-13T11:48:19.031Z,5.72
2023-05-13T11:50:45.811Z,8.57
2023-05-13T11:53:12.488Z,4.53
2023-05-13T11:55:39.111Z,6.72
2023-05-13T11:58:05.720Z,9.20
2023-05-13T12:00:33.962Z,4.70
2023-05-13T12:03:03.095Z,6.57
2023-05-13T12:05:30.455Z,5.20
2023-05-13T12:07:58.029Z,5.20
2023-05-13T12:10:25.064Z,6.38
2023-05-13T12:12:51.803Z,4.88
2023-05-13T12:15:20.216Z,6.72
2023-05-13T12:17:48.449Z,7.15
2023-05-13T12:20:18.797Z,5.75
2023-05-13T12:22:45.525Z,7.47
2023-05-13T12:25:37.041Z,10.65
2023-05-13T12:28:14.126Z,4.78
2023-05-13T12:30:43.944Z,5.53
2023-05-13T12:33:24.612Z,5.65
2023-05-13T12:36:00.184Z,6.55
2023-05-13T12:38:27.199Z,5.93
2023-05-13T12:40:54.779Z,6.43
2023-05-13T12:43:21.460Z,4.80
2023-05-13T12:45:53.590Z,7.22
2023-05-13T12:48:23.443Z,5.53
2023-05-13T12:50:50.354Z,8.68
2023-05-13T12:53:17.024Z,4.55
2023-05-13T12:55:43.614Z,5.63
2023-05-13T12:58:11.306Z,5.35
2023-05-13T13:00:38.412Z,9.75
2023-05-13T13:03:05.308Z,4.18
2023-05-13T13:05:32.001Z,5.38
2023-05-13T13:07:58.733Z,5.13
2023-05-13T13:10:25.407Z,4.43
2023-05-13T13:12:52.217Z,3.78
2023-05-13T13:15:27.614Z,5.13
2023-05-13T13:17:54.253Z,11.63
2023-05-13T13:20:20.977Z,4.38
2023-05-13T13:22:47.619Z,4.65
2023-05-13T13:25:14.267Z,7.47
2023-05-13T13:27:40.935Z,7.78
2023-05-13T13:30:08.133Z,6.28
2023-05-13T13:32:36.040Z,4.88
2023-05-13T13:35:05.444Z,5.00
2023-05-13T13:37:32.099Z,6.30
2023-05-13T13:39:58.705Z,5.25
2023-05-13T13:42:33.626Z,10.18
2023-05-13T13:45:10.606Z,7.00
2023-05-13T13:47:37.583Z,5.22
2023-05-13T13:50:04.620Z,6.82
2023-05-13T13:52:31.590Z,4.72
2023-05-13T13:54:58.329Z,7.75
2023-05-13T13:57:24.910Z,4.07
2023-05-13T13:59:51.565Z,3.45
2023-05-13T14:02:18.179Z,3.67
2023-05-13T14:04:46.396Z,3.63
2023-05-13T14:07:13.109Z,5.93
2023-05-13T14:09:39.749Z,3.78
2023-05-13T14:12:06.406Z,4.32
2023-05-13T14:14:33.264Z,3.55
2023-05-13T14:16:59.938Z,2.42
2023-05-13T14:19:27.137Z,4.55
2023-05-13T14:21:53.776Z,4.03
2023-05-13T14:24:20.491Z,3.83
2023-05-13T14:26:47.114Z,2.60
2023-05-13T14:29:13.739Z,2.80
2023-05-13T14:31:42.499Z,7.05
2023-05-13T14:34:09.495Z,3.20
2023-05-13T14:36:36.138Z,4.45
2023-05-13T14:39:02.990Z,6.22
2023-05-13T14:41:29.924Z,4.57
2023-05-13T14:43:57.326Z,4.70
2023-05-13T14:46:24.066Z,4.38
2023-05-13T14:48:50.897Z,5.60
2023-05-13T14:51:17.684Z,9.13
2023-05-13T14:53:44.414Z,3.40
2023-05-13T14:56:11.230Z,5.00
2023-05-13T14:58:38.938Z,6.05
2023-05-13T15:01:05.682Z,7.30
2023-05-13T15:03:32.415Z,5.45
2023-05-13T15:05:59.109Z,4.70
2023-05-13T15:08:26.181Z,4.68
2023-05-13T15:10:52.789Z,6.70
2023-05-13T15:13:23.011Z,5.07
2023-05-13T15:15:49.798Z,4.82
2023-05-13T15:18:18.408Z,7.53
2023-05-13T15:20:45.377Z,7.10
2023-05-13T15:23:12.263Z,6.90
2023-05-13T15:25:38.875Z,4.80
2023-05-13T15:28:05.550Z,4.47
2023-05-13T15:30:35.919Z,3.05
2023-05-13T15:33:03.899Z,4.55
2023-05-13T15:35:30.669Z,3.95
2023-05-13T15:37:57.724Z,4.88
2023-05-13T15:40:24.453Z,7.30
2023-05-13T15:42:51.312Z,8.30
2023-05-13T15:45:18.677Z,6.05
2023-05-13T15:47:45.631Z,5.78
2023-05-13T15:50:13.995Z,6.60
2023-05-13T15:52:40.765Z,5.22
2023-05-13T15:55:07.471Z,4.68
2023-05-13T15:57:34.563Z,4.68
2023-05-13T16:00:01.284Z,5.72
2023-05-13T16:02:35.845Z,3.45
2023-05-13T16:05:02.630Z,3.45
2023-05-13T16:07:29.377Z,4.70
2023-05-13T16:09:56.365Z,4.22
2023-05-13T16:12:22.980Z,2.53
2023-05-13T16:14:51.356Z,4.30
2023-05-13T16:17:18.215Z,4.10
2023-05-13T16:19:46.299Z,9.30
2023-05-13T16:22:30.787Z,4.32
2023-05-13T16:25:02.613Z,3.40
2023-05-13T16:27:30.791Z,5.22
2023-05-13T16:29:58.725Z,3.10
2023-05-13T16:32:25.578Z,4.53
2023-05-13T16:34:52.500Z,3.95
2023-05-13T16:37:19.119Z,4.30
2023-05-13T16:39:46.078Z,14.20
2023-05-13T16:42:13.231Z,7.00
2023-05-13T16:44:43.170Z,6.65
2023-05-13T16:47:09.960Z,6.72
2023-05-13T16:49:37.114Z,6.07
2023-05-13T16:52:04.754Z,5.57
2023-05-13T16:54:31.573Z,4.35
2023-05-13T16:56:59.349Z,5.85
2023-05-13T16:59:27.484Z,7.03
2023-05-13T17:01:54.420Z,6.75
2023-05-13T17:04:21.797Z,6.65
2023-05-13T17:06:48.435Z,5.82
2023-05-13T17:09:15.090Z,4.13
2023-05-13T17:11:42.841Z,4.82
2023-05-13T17:14:10.606Z,3.35
2023-05-13T17:16:38.401Z,4.03
2023-05-13T17:19:11.236Z,4.97
2023-05-13T17:21:38.957Z,4.55
2023-05-13T17:24:06.623Z,5.93
2023-05-13T17:26:36.131Z,10.05
2023-05-13T17:29:04.303Z,4.00
2023-05-13T17:31:31.007Z,5.05
2023-05-13T17:33:57.647Z,5.22
2023-05-13T17:36:24.484Z,5.45
2023-05-13T17:38:51.377Z,6.30
2023-05-13T17:41:18.052Z,8.43
2023-05-13T17:43:44.741Z,7.95
2023-05-13T17:46:11.413Z,7.20
2023-05-13T17:48:38.267Z,4.85
2023-05-13T17:51:04.951Z,5.43
2023-05-13T17:53:34.469Z,8.20
2023-05-13T17:56:02.746Z,7.07
2023-05-13T17:58:32.487Z,7.80
2023-05-13T18:01:00.041Z,7.30
2023-05-13T18:03:28.518Z,10.52
2023-05-13T18:05:56.009Z,8.63
2023-05-13T18:08:22.710Z,7.22
2023-05-13T18:10:49.459Z,7.03
2023-05-13T18:13:16.266Z,8.77
2023-05-13T18:15:42.922Z,6.45
2023-05-13T18:18:10.003Z,11.25
2023-05-13T18:20:36.805Z,8.20
2023-05-13T18:23:03.459Z,9.32
2023-05-13T18:25:31.321Z,7.30
2023-05-13T18:27:57.949Z,5.28
2023-05-13T18:30:24.863Z,6.90
2023-05-13T18:32:51.836Z,4.90
2023-05-13T18:35:22.015Z,8.88
2023-05-13T18:37:51.438Z,9.32
2023-05-13T18:40:19.910Z,11.40
2023-05-13T18:42:46.809Z,6.38
2023-05-13T18:45:13.624Z,6.80
2023-05-13T18:47:40.354Z,14.75
2023-05-13T18:50:08.110Z,9.18
2023-05-13T18:52:34.800Z,9.18
2023-05-13T18:55:04.587Z,11.10
2023-05-13T18:57:31.431Z,11.43
2023-05-13T18:59:58.456Z,12.10
2023-05-13T19:02:25.443Z,10.45
2023-05-13T19:04:52.327Z,10.38
2023-05-13T19:07:18.949Z,30.40
2023-05-13T19:09:45.813Z,11.82
2023-05-13T19:12:12.503Z,8.73
2023-05-13T19:14:39.481Z,12.02
2023-05-13T19:17:06.425Z,8.77
2023-05-13T19:19:33.159Z,9.32
2023-05-13T19:22:00.188Z,9.55
2023-05-13T19:24:26.812Z,12.30
2023-05-13T19:26:53.595Z,22.80
2023-05-13T19:29:20.247Z,12.75
2023-05-13T19:31:47.136Z,10.27
2023-05-13T19:34:15.167Z,10.57
2023-05-13T19:36:43.170Z,14.20
2023-05-13T19:39:10.309Z,12.65
2023-05-13T19:41:37.784Z,13.75
2023-05-13T19:44:05.372Z,13.07
2023-05-13T19:46:32.339Z,13.85
2023-05-13T19:48:59.118Z,11.07
2023-05-13T19:51:26.737Z,13.73
2023-05-13T19:53:53.532Z,16.63
2023-05-13T19:56:20.169Z,12.55
2023-05-13T19:58:46.839Z,12.13
2023-05-13T20:01:14.864Z,15.68
2023-05-13T20:03:42.739Z,16.90
2023-05-13T20:06:10.095Z,12.05
2023-05-13T20:08:38.165Z,17.52
2023-05-13T20:11:04.801Z,14.70
2023-05-13T20:13:32.930Z,11.93
2023-05-13T20:16:07.436Z,14.15
2023-05-13T20:18:34.390Z,12.02
2023-05-13T20:21:01.579Z,12.38
2023-05-13T20:23:28.189Z,11.73
2023-05-13T20:25:56.898Z,13.90
2023-05-13T20:28:24.805Z,12.60
2023-05-13T20:30:55.648Z,15.98
2023-05-13T20:33:22.420Z,12.30
2023-05-13T20:35:49.171Z,14.07
2023-05-13T20:38:15.869Z,15.75
2023-05-13T20:40:42.475Z,17.40
2023-05-13T20:43:09.313Z,12.90
2023-05-13T20:45:39.361Z,15.80
2023-05-13T20:48:07.435Z,18.83
2023-05-13T20:50:35.513Z,16.95
2023-05-13T20:53:02.586Z,25.90
2023-05-13T20:55:32.229Z,19.15
2023-05-13T20:57:58.919Z,14.45
2023-05-13T21:00:25.778Z,14.93
2023-05-13T21:02:55.058Z,19.35
2023-05-13T21:05:22.048Z,17.00
2023-05-13T21:07:49.057Z,15.15
2023-05-13T21:10:17.877Z,18.23
2023-05-13T21:12:47.626Z,18.77
2023-05-13T21:15:15.010Z,20.27
2023-05-13T21:17:41.743Z,22.38
2023-05-13T21:20:10.293Z,23.77
2023-05-13T21:22:37.303Z,19.02
2023-05-13T21:25:04.642Z,23.35
2023-05-13T21:27:31.855Z,21.08
2023-05-13T21:29:58.563Z,19.70
2023-05-13T21:32:25.264Z,19.10
2023-05-13T21:34:51.942Z,23.42
2023-05-13T21:37:18.614Z,19.90
2023-05-13T21:39:45.326Z,18.55
2023-05-13T21:42:12.062Z,22.50
2023-05-13T21:44:38.858Z,21.55
2023-05-13T21:47:05.792Z,23.38
2023-05-13T21:49:32.432Z,21.77
2023-05-13T21:51:59.220Z,20.73
2023-05-13T21:54:26.545Z,25.00
2023-05-13T21:56:53.274Z,22.30
2023-05-13T21:59:20.562Z,22.55
2023-05-13T22:01:47.257Z,22.05
2023-05-13T22:04:14.152Z,21.77
2023-05-13T22:06:40.806Z,22.55
2023-05-13T22:09:10.578Z,23.13
2023-05-13T22:11:37.313Z,19.40
2023-05-13T22:14:07.907Z,16.63
2023-05-13T22:16:34.694Z,21.58
2023-05-13T22:19:01.718Z,22.90
2023-05-13T22:21:28.983Z,19.05
2023-05-13T22:23:55.602Z,24.30
2023-05-13T22:26:22.290Z,23.02
2023-05-13T22:28:48.992Z,26.23
2023-05-13T22:31:19.564Z,21.73
2023-05-13T22:33:53.185Z,22.73
2023-05-13T22:36:22.893Z,20.33
2023-05-13T22:38:49.844Z,22.05
2023-05-13T22:41:18.990Z,27.05
2023-05-13T22:43:45.879Z,27.00
2023-05-13T22:46:12.629Z,22.45
2023-05-13T22:48:39.659Z,22.75
2023-05-13T22:51:06.254Z,34.28
2023-05-13T22:53:32.984Z,38.35
2023-05-13T22:55:59.625Z,61.92
2023-05-13T22:58:26.312Z,46.42
2023-05-13T23:00:52.894Z,39.05
2023-05-13T23:03:19.476Z,44.25
2023-05-13T23:05:46.055Z,47.88
2023-05-13T23:08:12.692Z,43.75
2023-05-13T23:10:39.282Z,49.83
2023-05-13T23:13:06.230Z,44.63
2023-05-13T23:15:33.028Z,40.70
2023-05-13T23:17:59.721Z,37.25
2023-05-13T23:20:26.322Z,31.48
2023-05-13T23:22:53.465Z,30.20
2023-05-13T23:25:27.202Z,27.90
2023-05-13T23:27:53.827Z,28.27
2023-05-13T23:30:21.605Z,32.83
2023-05-13T23:32:48.553Z,25.40
2023-05-13T23:35:15.474Z,24.25
2023-05-13T23:37:42.104Z,23.08
2023-05-13T23:40:09.141Z,27.05
2023-05-13T23:42:36.027Z,27.40
2023-05-13T23:45:02.714Z,22.27
2023-05-13T23:47:29.632Z,27.10
2023-05-13T23:49:57.955Z,20.52
2023-05-13T23:52:24.606Z,25.38
2023-05-13T23:54:51.178Z,21.17
2023-05-13T23:57:18.167Z,24.30
2023-05-13T23:59:44.953Z,22.88
